Time;durP1;ratioP1;P1;durP2;ratioP2;P2;SDS_P1;SDS_P2;PMS_P1;PMS_P2;Temp;Humidity;BMP_temperature;BMP_pressure;BME280_temperature;BME280_humidity;BME280_pressure;Samples;Min_cycle;Max_cycle;Signal;HPM_P1;HPM_P2
2023/07/14 00:00:35;;;;;;;;;;;;;;;-140.72;100.00;52587.69;4995265;28;19918;-71
2023/07/14 00:03:02;;;;;;;;;;;;;;;-140.72;100.00;52553.19;4987145;28;20299;-72
2023/07/14 00:05:29;;;;;;;;;;;;;;;-140.72;100.00;52581.59;4974223;28;19922;-72
2023/07/14 00:07:55;;;;;;;;;;;;;;;-140.72;100.00;52545.06;4977334;28;19928;-72
2023/07/14 00:10:24;;;;;;;;;;;;;;;-140.72;100.00;52569.44;4995178;28;19928;-72
2023/07/14 00:12:51;;;;;;;;;;;;;;;-140.72;100.00;52575.50;4985878;28;19922;-71
2023/07/14 00:15:17;;;;;;;;;;;;;;;-140.72;100.00;52553.19;4988031;28;19969;-72
2023/07/14 00:17:42;;;;;;;;;;;;;;;-140.72;100.00;52591.75;4985976;28;19918;-72
2023/07/14 00:20:23;;;;;;;;;;;;;;;-140.72;100.00;52565.38;4974562;28;19922;-72
2023/07/14 00:22:49;;;;;;;;;;;;;;;-140.72;100.00;52577.53;4993409;28;20360;-72
2023/07/14 00:25:15;;;;;;;;;;;;;;;-140.72;100.00;52551.16;5002569;28;20435;-70
2023/07/14 00:27:46;;;;;;;;;;;;;;;-140.72;100.00;52593.78;4981152;28;20031;-74
2023/07/14 00:30:16;;;;;;;;;;;;;;;-140.72;100.00;52565.38;4985178;28;19933;-71
2023/07/14 00:32:42;;;;;;;;;;;;;;;-140.72;100.00;52581.59;4986012;28;19930;-70
2023/07/14 00:35:25;;;;;;;;;;;;;;;-140.72;100.00;52593.78;4994243;28;19933;-70
2023/07/14 00:37:51;;;;;;;;;;;;;;;-140.72;100.00;52573.50;4992550;28;19925;-70
2023/07/14 00:40:26;;;;;;;;;;;;;;;-140.72;100.00;52573.50;4980514;28;19919;-70
2023/07/14 00:42:53;;;;;;;;;;;;;;;-140.72;100.00;52577.53;4990587;28;19930;-70
2023/07/14 00:45:21;;;;;;;;;;;;;;;-140.72;100.00;52610.00;4993831;28;19933;-70
2023/07/14 00:47:52;;;;;;;;;;;;;;;-140.72;100.00;52591.75;4992720;28;19926;-70
2023/07/14 00:50:38;;;;;;;;;;;;;;;-140.72;100.00;52597.84;4993682;28;19941;-70
2023/07/14 00:53:06;;;;;;;;;;;;;;;-140.72;100.00;52603.94;4988819;28;19922;-70
2023/07/14 00:55:36;;;;;;;;;;;;;;;-140.72;100.00;52607.97;4993614;28;19929;-70
2023/07/14 00:58:02;;;;;;;;;;;;;;;-140.72;100.00;52585.66;4975734;28;20348;-72
2023/07/14 01:00:31;;;;;;;;;;;;;;;-140.72;100.00;52587.69;4964337;28;20351;-70
2023/07/14 01:02:58;;;;;;;;;;;;;;;-140.72;100.00;52573.50;4993126;28;19925;-70
2023/07/14 01:05:24;;;;;;;;;;;;;;;-140.72;100.00;52589.72;4996976;28;19929;-70
2023/07/14 01:07:51;;;;;;;;;;;;;;;-140.72;100.00;52581.59;4994538;28;19921;-71
2023/07/14 01:10:18;;;;;;;;;;;;;;;-140.72;100.00;52583.63;4965992;28;20008;-70
2023/07/14 01:12:47;;;;;;;;;;;;;;;-140.72;100.00;52557.25;4986463;28;19988;-70
2023/07/14 01:15:12;;;;;;;;;;;;;;;-140.72;100.00;52589.72;4988860;28;20407;-70
2023/07/14 01:17:38;;;;;;;;;;;;;;;-140.72;100.00;52573.50;4993507;28;19921;-71
2023/07/14 01:20:09;;;;;;;;;;;;;;;-140.72;100.00;52587.69;4968578;28;19929;-71
2023/07/14 01:22:41;;;;;;;;;;;;;;;-140.72;100.00;52601.91;4992455;28;20245;-71
2023/07/14 01:25:06;;;;;;;;;;;;;;;-140.72;100.00;52585.66;4988826;28;20116;-71
2023/07/14 01:27:31;;;;;;;;;;;;;;;-140.72;100.00;52573.50;4965633;28;20411;-71
2023/07/14 01:29:57;;;;;;;;;;;;;;;-140.72;100.00;52601.91;4989801;28;19922;-71
2023/07/14 01:32:23;;;;;;;;;;;;;;;-140.72;100.00;52581.59;4980811;28;20422;-71
2023/07/14 01:34:57;;;;;;;;;;;;;;;-140.72;100.00;52597.84;4991453;28;19921;-71
2023/07/14 01:37:22;;;;;;;;;;;;;;;-140.72;100.00;52597.84;4992900;28;20256;-70
2023/07/14 01:39:50;;;;;;;;;;;;;;;-140.72;100.00;52575.50;4990495;28;19929;-71
2023/07/14 01:42:16;;;;;;;;;;;;;;;-140.72;100.00;52622.19;4993486;28;19922;-71
2023/07/14 01:44:42;;;;;;;;;;;;;;;-140.72;100.00;52595.81;4993171;28;19944;-71
2023/07/14 01:47:09;;;;;;;;;;;;;;;-140.72;100.00;52593.78;4980239;28;19956;-72
2023/07/14 01:49:41;;;;;;;;;;;;;;;-140.72;100.00;52565.38;4992540;28;19941;-70
2023/07/14 01:52:09;;;;;;;;;;;;;;;-140.72;100.00;52585.66;4972080;28;19922;-70
2023/07/14 01:54:37;;;;;;;;;;;;;;;-140.72;100.00;52585.66;4986566;28;20008;-70
2023/07/14 01:57:05;;;;;;;;;;;;;;;-140.72;100.00;52601.91;4975009;28;19925;-70
2023/07/14 01:59:33;;;;;;;;;;;;;;;-140.72;100.00;52559.28;4971001;28;19976;-70
2023/07/14 02:01:59;;;;;;;;;;;;;;;-140.72;100.00;52541.03;4992775;28;19928;-70
2023/07/14 02:04:26;;;;;;;;;;;;;;;-140.72;100.00;52614.06;4993033;28;19917;-69
2023/07/14 02:06:52;;;;;;;;;;;;;;;-140.72;100.00;52585.66;4992108;28;19929;-70
2023/07/14 02:09:19;;;;;;;;;;;;;;;-140.72;100.00;52585.66;4992981;28;19921;-70
2023/07/14 02:11:47;;;;;;;;;;;;;;;-140.72;100.00;52593.78;4989706;28;19971;-70
2023/07/14 02:14:15;;;;;;;;;;;;;;;-140.72;100.00;52573.50;4993224;28;19980;-71
2023/07/14 02:16:41;;;;;;;;;;;;;;;-140.72;100.00;52577.53;4988294;28;20360;-71
2023/07/14 02:19:07;;;;;;;;;;;;;;;-140.72;100.00;52573.50;4986366;28;19917;-70
2023/07/14 02:21:35;;;;;;;;;;;;;;;-140.72;100.00;52571.47;4978616;28;19929;-70
2023/07/14 02:24:00;;;;;;;;;;;;;;;-140.72;100.00;52632.34;4973775;28;19927;-70
2023/07/14 02:26:33;;;;;;;;;;;;;;;-140.72;100.00;52595.81;4991551;28;20049;-70
2023/07/14 02:28:58;;;;;;;;;;;;;;;-140.72;100.00;52569.44;4992150;28;19922;-71
2023/07/14 02:31:41;;;;;;;;;;;;;;;-140.72;100.00;52591.75;4983609;28;19978;-71
2023/07/14 02:34:12;;;;;;;;;;;;;;;-140.72;100.00;52577.53;4984465;28;19925;-71
2023/07/14 02:36:53;;;;;;;;;;;;;;;-140.72;100.00;52593.78;5000028;28;20303;-70
2023/07/14 02:39:19;;;;;;;;;;;;;;;-140.72;100.00;52626.25;4987669;28;20100;-70
2023/07/14 02:41:44;;;;;;;;;;;;;;;-140.72;100.00;52605.94;4972802;28;20005;-70
2023/07/14 02:44:12;;;;;;;;;;;;;;;-140.72;100.00;52573.50;4989939;28;20380;-70
2023/07/14 02:46:37;;;;;;;;;;;;;;;-140.72;100.00;52618.13;4991710;28;19925;-70
2023/07/14 02:49:03;;;;;;;;;;;;;;;-140.72;100.00;52614.06;4992202;28;19945;-71
2023/07/14 02:51:28;;;;;;;;;;;;;;;-140.72;100.00;52607.97;4992534;28;19922;-70
2023/07/14 02:53:53;;;;;;;;;;;;;;;-140.72;100.00;52618.13;4989719;28;19922;-70
2023/07/14 02:56:19;;;;;;;;;;;;;;;-140.72;100.00;52620.16;4986236;28;20390;-70
2023/07/14 02:58:48;;;;;;;;;;;;;;;-140.72;100.00;52618.13;4990704;28;19918;-70
2023/07/14 03:01:14;;;;;;;;;;;;;;;-140.72;100.00;52622.19;4990528;28;19944;-70
2023/07/14 03:03:39;;;;;;;;;;;;;;;-140.72;100.00;52601.91;4993507;28;19917;-70
2023/07/14 03:06:04;;;;;;;;;;;;;;;-140.72;100.00;52626.25;4995859;28;19917;-70
2023/07/14 03:08:30;;;;;;;;;;;;;;;-140.72;100.00;52601.91;4996061;28;19922;-70
2023/07/14 03:10:56;;;;;;;;;;;;;;;-140.72;100.00;52599.88;4977660;28;19957;-70
2023/07/14 03:13:22;;;;;;;;;;;;;;;-140.72;100.00;52585.66;4991676;28;19918;-71
2023/07/14 03:15:47;;;;;;;;;;;;;;;-140.72;100.00;52610.00;4995759;28;19932;-70
2023/07/14 03:18:14;;;;;;;;;;;;;;;-140.72;100.00;52616.09;4978050;28;19922;-70
2023/07/14 03:20:40;;;;;;;;;;;;;;;-140.72;100.00;52612.03;4994233;28;19922;-71
2023/07/14 03:23:05;;;;;;;;;;;;;;;-140.72;100.00;52610.00;4986102;28;19941;-70
2023/07/14 03:25:30;;;;;;;;;;;;;;;-140.72;100.00;52612.03;4984279;28;19922;-70
2023/07/14 03:27:55;;;;;;;;;;;;;;;-140.72;100.00;52603.94;4995707;28;19925;-70
2023/07/14 03:30:21;;;;;;;;;;;;;;;-140.72;100.00;52620.16;4987654;28;19925;-71
2023/07/14 03:32:46;;;;;;;;;;;;;;;-140.72;100.00;52593.78;4996044;28;19925;-70
2023/07/14 03:35:11;;;;;;;;;;;;;;;-140.72;100.00;52662.78;4982832;28;20368;-71
2023/07/14 03:37:37;;;;;;;;;;;;;;;-140.72;100.00;52652.63;4992207;28;20016;-71
2023/07/14 03:40:04;;;;;;;;;;;;;;;-140.72;100.00;52646.53;4988489;28;19924;-71
2023/07/14 03:42:30;;;;;;;;;;;;;;;-140.72;100.00;52620.16;4995663;28;20328;-74
2023/07/14 03:44:55;;;;;;;;;;;;;;;-140.72;100.00;52634.38;4977567;28;19964;-70
2023/07/14 03:47:20;;;;;;;;;;;;;;;-140.72;100.00;52632.34;4994826;28;19922;-70
2023/07/14 03:49:46;;;;;;;;;;;;;;;-140.72;100.00;52610.00;4994882;28;19926;-71
2023/07/14 03:52:13;;;;;;;;;;;;;;;-140.72;100.00;52638.41;4994941;28;20276;-71
2023/07/14 03:54:38;;;;;;;;;;;;;;;-140.72;100.00;52610.00;4992960;28;20240;-71
2023/07/14 03:57:05;;;;;;;;;;;;;;;-140.72;100.00;52612.03;5001545;28;19917;-71
2023/07/14 03:59:30;;;;;;;;;;;;;;;-140.72;100.00;52605.94;5000557;28;20292;-70
2023/07/14 04:01:56;;;;;;;;;;;;;;;-140.72;100.00;52610.00;4995685;28;19921;-70
2023/07/14 04:04:22;;;;;;;;;;;;;;;-140.72;100.00;52610.00;4980790;28;19969;-72
2023/07/14 04:06:48;;;;;;;;;;;;;;;-140.72;100.00;52601.91;4994402;28;19976;-72
2023/07/14 04:09:13;;;;;;;;;;;;;;;-140.72;100.00;52610.00;4986966;28;20340;-73
2023/07/14 04:11:38;;;;;;;;;;;;;;;-140.72;100.00;52614.06;4990323;28;19929;-71
2023/07/14 04:14:04;;;;;;;;;;;;;;;-140.72;100.00;52599.88;4976208;28;20356;-71
2023/07/14 04:16:30;;;;;;;;;;;;;;;-140.72;100.00;52612.03;4988456;28;19965;-71
2023/07/14 04:18:55;;;;;;;;;;;;;;;-140.72;100.00;52618.13;4976039;28;19953;-71
2023/07/14 04:21:24;;;;;;;;;;;;;;;-140.72;100.00;52593.78;4994395;28;20311;-71
2023/07/14 04:23:50;;;;;;;;;;;;;;;-140.72;100.00;52569.44;4988954;28;20390;-71
2023/07/14 04:26:15;;;;;;;;;;;;;;;-140.72;100.00;52581.59;4989423;28;19960;-72
2023/07/14 04:28:40;;;;;;;;;;;;;;;-140.72;100.00;52614.06;4993134;28;19953;-73
2023/07/14 04:31:06;;;;;;;;;;;;;;;-140.72;100.00;52614.06;4994490;28;20017;-72
2023/07/14 04:33:31;;;;;;;;;;;;;;;-140.72;100.00;52593.78;4993749;28;20360;-75
2023/07/14 04:35:57;;;;;;;;;;;;;;;-140.72;100.00;52626.25;4987936;28;19921;-74
2023/07/14 04:38:23;;;;;;;;;;;;;;;-140.72;100.00;52603.94;4992244;28;19929;-72
2023/07/14 04:40:49;;;;;;;;;;;;;;;-140.72;100.00;52581.59;4992860;28;20059;-71
2023/07/14 04:43:15;;;;;;;;;;;;;;;-140.72;100.00;52591.75;4974810;28;20302;-71
2023/07/14 04:45:41;;;;;;;;;;;;;;;-140.72;100.00;52601.91;4987784;28;19919;-71
2023/07/14 04:48:07;;;;;;;;;;;;;;;-140.72;100.00;52591.75;4988041;28;19929;-71
2023/07/14 04:50:33;;;;;;;;;;;;;;;-140.72;100.00;52607.97;4985260;28;20398;-71
2023/07/14 04:52:58;;;;;;;;;;;;;;;-140.72;100.00;52589.72;4988703;28;20030;-72
2023/07/14 04:55:23;;;;;;;;;;;;;;;-140.72;100.00;52610.00;4987495;28;19922;-72
2023/07/14 04:57:49;;;;;;;;;;;;;;;-140.72;100.00;52610.00;4989577;28;20388;-73
2023/07/14 05:00:15;;;;;;;;;;;;;;;-140.72;100.00;52603.94;4991456;28;19930;-73
2023/07/14 05:02:40;;;;;;;;;;;;;;;-140.72;100.00;52577.53;4991978;28;19922;-72
2023/07/14 05:05:19;;;;;;;;;;;;;;;-140.72;100.00;52595.81;4975766;28;19922;-74
2023/07/14 05:07:44;;;;;;;;;;;;;;;-140.72;100.00;52597.84;4990164;28;20024;-71
2023/07/14 05:10:10;;;;;;;;;;;;;;;-140.72;100.00;52585.66;4990219;28;20004;-70
2023/07/14 05:12:36;;;;;;;;;;;;;;;-140.72;100.00;52559.28;4988222;28;20417;-71
2023/07/14 05:15:02;;;;;;;;;;;;;;;-140.72;100.00;52610.00;4989345;28;19948;-70
2023/07/14 05:17:28;;;;;;;;;;;;;;;-140.72;100.00;52593.78;4986817;28;19950;-72
2023/07/14 05:19:53;;;;;;;;;;;;;;;-140.72;100.00;52601.91;4983336;28;19969;-77
2023/07/14 05:22:18;;;;;;;;;;;;;;;-140.72;100.00;52573.50;4973469;28;19944;-72
2023/07/14 05:24:43;;;;;;;;;;;;;;;-140.72;100.00;52565.38;4990377;28;19922;-72
2023/07/14 05:27:09;;;;;;;;;;;;;;;-140.72;100.00;52581.59;4986121;28;19929;-71
2023/07/14 05:29:34;;;;;;;;;;;;;;;-140.72;100.00;52577.53;4992380;28;20280;-70
2023/07/14 05:31:59;;;;;;;;;;;;;;;-140.72;100.00;52536.97;4989923;28;20116;-70
2023/07/14 05:34:24;;;;;;;;;;;;;;;-140.72;100.00;52581.59;4990584;28;19918;-69
2023/07/14 05:36:50;;;;;;;;;;;;;;;-140.72;100.00;52532.91;4991674;28;20024;-74
2023/07/14 05:39:15;;;;;;;;;;;;;;;-140.72;100.00;52553.19;4991752;28;20302;-73
2023/07/14 05:41:46;;;;;;;;;;;;;;;-140.72;100.00;52549.13;4990235;28;19926;-73
2023/07/14 05:44:30;;;;;;;;;;;;;;;-140.72;100.00;52561.31;4998824;28;19926;-73
2023/07/14 05:46:56;;;;;;;;;;;;;;;-140.72;100.00;52581.59;4990085;28;19918;-73
2023/07/14 05:49:21;;;;;;;;;;;;;;;-140.72;100.00;52539.00;4992207;28;19921;-74
2023/07/14 05:51:47;;;;;;;;;;;;;;;-140.72;100.00;52541.03;4994801;28;20307;-74
2023/07/14 05:54:12;;;;;;;;;;;;;;;-140.72;100.00;52559.28;4974966;28;20236;-73
2023/07/14 05:56:37;;;;;;;;;;;;;;;-140.72;100.00;52526.81;4971635;28;19930;-69
2023/07/14 05:59:03;;;;;;;;;;;;;;;-140.72;100.00;52534.94;4988263;28;19961;-74
2023/07/14 06:01:28;;;;;;;;;;;;;;;-140.72;100.00;52526.81;4991871;28;19917;-74
2023/07/14 06:03:59;;;;;;;;;;;;;;;-140.72;100.00;52543.03;4969275;28;20012;-72
2023/07/14 06:06:24;;;;;;;;;;;;;;;-140.72;100.00;52528.84;4984384;28;20018;-73
2023/07/14 06:08:49;;;;;;;;;;;;;;;-140.72;100.00;52536.97;4993211;28;20396;-72
2023/07/14 06:11:15;;;;;;;;;;;;;;;-140.72;100.00;52563.34;4992014;28;19929;-75
2023/07/14 06:13:40;;;;;;;;;;;;;;;-140.72;100.00;52516.66;4983983;28;19945;-72
2023/07/14 06:16:05;;;;;;;;;;;;;;;-140.72;100.00;52532.91;4973148;28;19949;-72
2023/07/14 06:18:31;;;;;;;;;;;;;;;-140.72;100.00;52506.53;4986748;28;20020;-73
2023/07/14 06:20:57;;;;;;;;;;;;;;;-140.72;100.00;52459.84;4992139;28;20346;-75
2023/07/14 06:23:22;;;;;;;;;;;;;;;-140.72;100.00;52520.72;4969024;28;19981;-75
2023/07/14 06:25:47;;;;;;;;;;;;;;;-140.72;100.00;52520.72;4986766;28;19922;-74
2023/07/14 06:28:13;;;;;;;;;;;;;;;-140.72;100.00;52496.38;4992980;28;19928;-73
2023/07/14 06:30:38;;;;;;;;;;;;;;;-140.72;100.00;52437.53;4988803;28;19925;-73
2023/07/14 06:33:03;;;;;;;;;;;;;;;-140.72;100.00;52453.75;4969392;28;20320;-74
2023/07/14 06:35:29;;;;;;;;;;;;;;;-140.72;100.00;52488.25;4984150;28;19921;-73
2023/07/14 06:37:57;;;;;;;;;;;;;;;-140.72;100.00;52480.16;4990386;28;19922;-73
2023/07/14 06:40:23;;;;;;;;;;;;;;;-140.72;100.00;52492.31;4991375;28;19923;-73
2023/07/14 06:42:49;;;;;;;;;;;;;;;-140.72;100.00;52496.38;4990250;28;20013;-72
2023/07/14 06:45:21;;;;;;;;;;;;;;;-140.72;100.00;52470.00;4990894;28;19957;-73
2023/07/14 06:47:46;;;;;;;;;;;;;;;-140.72;100.00;52463.91;4988688;28;20350;-73
2023/07/14 06:50:12;;;;;;;;;;;;;;;-140.72;100.00;52480.16;4988964;28;19921;-73
2023/07/14 06:52:38;;;;;;;;;;;;;;;-140.72;100.00;52500.44;4985408;28;19929;-73
2023/07/14 06:55:10;;;;;;;;;;;;;;;-140.72;100.00;52484.19;4991705;28;20072;-73
2023/07/14 06:57:35;;;;;;;;;;;;;;;-140.72;100.00;52453.75;4989708;28;19918;-73
2023/07/14 07:00:01;;;;;;;;;;;;;;;-140.72;100.00;52435.50;4987697;28;19932;-75
2023/07/14 07:02:26;;;;;;;;;;;;;;;-140.72;100.00;52437.53;4976947;28;20352;-74
2023/07/14 07:04:51;;;;;;;;;;;;;;;-140.72;100.00;52457.81;4994084;28;19996;-72
2023/07/14 07:07:17;;;;;;;;;;;;;;;-140.72;100.00;52431.44;4991339;28;19922;-71
2023/07/14 07:09:42;;;;;;;;;;;;;;;-140.72;100.00;52449.72;4985065;28;20016;-72
2023/07/14 07:12:09;;;;;;;;;;;;;;;-140.72;100.00;52433.47;4989266;28;20043;-71
2023/07/14 07:14:35;;;;;;;;;;;;;;;-140.72;100.00;52447.69;4991564;28;19937;-71
2023/07/14 07:17:00;;;;;;;;;;;;;;;-140.72;100.00;52423.31;4993075;28;20307;-71
2023/07/14 07:19:25;;;;;;;;;;;;;;;-140.72;100.00;52443.63;4994227;28;20092;-71
2023/07/14 07:21:51;;;;;;;;;;;;;;;-140.72;100.00;52419.28;4992601;28;19926;-71
2023/07/14 07:24:17;;;;;;;;;;;;;;;-140.72;100.00;52453.75;4990743;28;19968;-71
2023/07/14 07:26:42;;;;;;;;;;;;;;;-140.72;100.00;52445.66;4990426;28;20249;-71
2023/07/14 07:29:16;;;;;;;;;;;;;;;-140.72;100.00;52437.53;4976208;28;19929;-73
2023/07/14 07:31:41;;;;;;;;;;;;;;;-140.72;100.00;52457.81;4992975;28;19964;-73
2023/07/14 07:34:08;;;;;;;;;;;;;;;-140.72;100.00;52409.13;4996518;28;19922;-73
2023/07/14 07:36:33;;;;;;;;;;;;;;;-140.72;100.00;52449.72;4991776;28;19922;-72
2023/07/14 07:38:59;;;;;;;;;;;;;;;-140.72;100.00;52465.94;4974773;28;20028;-75
2023/07/14 07:41:25;;;;;;;;;;;;;;;-140.72;100.00;52455.78;4992366;28;20383;-78
2023/07/14 07:43:52;;;;;;;;;;;;;;;-140.72;100.00;52447.69;4991911;28;19926;-73
2023/07/14 07:46:21;;;;;;;;;;;;;;;-140.72;100.00;52463.91;4992782;28;20007;-73
2023/07/14 07:48:46;;;;;;;;;;;;;;;-140.72;100.00;52449.72;4977327;28;19937;-73
2023/07/14 07:51:11;;;;;;;;;;;;;;;-140.72;100.00;52427.38;4994310;28;19922;-72
2023/07/14 07:53:37;;;;;;;;;;;;;;;-140.72;100.00;52453.75;4995259;28;19936;-73
2023/07/14 07:56:02;;;;;;;;;;;;;;;-140.72;86.64;52398.97;4994970;28;20012;-76
2023/07/14 07:58:28;;;;;;;;;;;;;;;-140.72;96.41;52392.88;4995161;28;19921;-73
2023/07/14 08:00:55;;;;;;;;;;;;;;;-140.72;70.00;52457.81;4994575;28;19917;-73
2023/07/14 08:03:20;;;;;;;;;;;;;;;-140.72;45.03;52398.97;4978025;28;19921;-73
2023/07/14 08:05:46;;;;;;;;;;;;;;;-140.72;20.27;52392.88;4993702;28;19917;-72
2023/07/14 08:08:11;;;;;;;;;;;;;;;-140.72;9.59;52409.13;4987465;28;19926;-73
2023/07/14 08:10:45;;;;;;;;;;;;;;;-140.72;6.95;52372.59;4987989;28;19922;-75
2023/07/14 08:13:10;;;;;;;;;;;;;;;-140.72;0.00;52405.06;4988737;28;20041;-74
2023/07/14 08:15:39;;;;;;;;;;;;;;;-140.72;0.00;52366.50;4991107;28;20364;-75
2023/07/14 08:18:06;;;;;;;;;;;;;;;-140.72;0.00;52380.72;4972035;28;19918;-74
2023/07/14 08:20:32;;;;;;;;;;;;;;;-140.72;0.00;52376.66;4988896;28;19926;-73
2023/07/14 08:26:03;;;;;;;;;;;;;;;-140.72;0.00;52336.06;4989584;28;19924;-73
2023/07/14 08:28:28;;;;;;;;;;;;;;;-140.72;0.00;52354.34;4994217;28;19969;-73
2023/07/14 08:30:55;;;;;;;;;;;;;;;-140.72;0.00;52356.38;4992816;28;19922;-74
2023/07/14 08:33:21;;;;;;;;;;;;;;;-140.72;0.00;52376.66;4988460;28;19922;-72
2023/07/14 08:35:50;;;;;;;;;;;;;;;-140.72;0.00;52376.66;4992316;28;20280;-72
2023/07/14 08:38:15;;;;;;;;;;;;;;;-140.72;0.00;52376.66;4991241;28;20237;-73
2023/07/14 08:40:47;;;;;;;;;;;;;;;-140.72;0.00;52398.97;4990802;28;19926;-76
2023/07/14 08:43:18;;;;;;;;;;;;;;;-140.72;0.00;52411.16;4987573;28;19936;-75
2023/07/14 08:46:06;;;;;;;;;;;;;;;-140.72;0.00;52372.59;4991312;28;19949;-76
2023/07/14 08:48:37;;;;;;;;;;;;;;;-140.72;0.00;52360.44;4993250;28;19926;-76
2023/07/14 08:51:22;;;;;;;;;;;;;;;-140.72;0.00;52382.75;4987782;28;19987;-74
2023/07/14 08:53:51;;;;;;;;;;;;;;;-140.72;0.00;52342.16;4975444;28;19918;-76
2023/07/14 08:56:19;;;;;;;;;;;;;;;-140.72;0.00;52352.31;4991150;28;19961;-77
2023/07/14 08:58:47;;;;;;;;;;;;;;;-140.72;0.00;52340.13;4994577;28;19922;-75
2023/07/14 09:01:34;;;;;;;;;;;;;;;-140.72;0.00;52358.41;4989726;28;19922;-75
2023/07/14 09:04:03;;;;;;;;;;;;;;;-140.72;0.00;52354.34;4964879;28;19933;-78
2023/07/14 09:06:36;;;;;;;;;;;;;;;-140.72;0.00;52297.53;4969238;28;20439;-74
2023/07/14 09:09:38;;;;;;;;;;;;;;;-140.72;0.00;52330.00;4985068;28;19926;-74
2023/07/14 09:12:22;;;;;;;;;;;;;;;-140.72;0.00;52307.66;4992888;28;20008;-73
2023/07/14 09:15:02;;;;;;;;;;;;;;;-140.72;0.00;52311.72;4992486;28;19976;-74
2023/07/14 09:17:27;;;;;;;;;;;;;;;-140.72;0.00;52287.38;4991241;28;19922;-73
2023/07/14 09:20:11;;;;;;;;;;;;;;;-140.72;0.00;52275.19;5000149;28;20288;-75
2023/07/14 09:23:06;;;;;;;;;;;;;;;-140.72;0.00;52311.72;5110990;27;19981;-74
2023/07/14 09:25:43;;;;;;;;;;;;;;;-140.72;0.00;52275.19;5094802;28;19928;-74
2023/07/14 09:28:14;;;;;;;;;;;;;;;-140.72;0.00;52285.34;5088115;28;19966;-74
2023/07/14 09:30:40;;;;;;;;;;;;;;;-140.72;0.00;52254.91;5089351;28;19920;-74
2023/07/14 09:33:12;;;;;;;;;;;;;;;-140.72;0.00;52305.63;5092752;28;19924;-74
2023/07/14 09:35:38;;;;;;;;;;;;;;;-140.72;0.00;52277.22;5089951;28;19920;-74
2023/07/14 09:38:15;;;;;;;;;;;;;;;-140.72;0.00;52263.03;5087437;28;20622;-74
2023/07/14 09:40:41;;;;;;;;;;;;;;;-140.72;0.00;52202.16;5104431;28;19924;-74
2023/07/14 09:43:09;;;;;;;;;;;;;;;-140.72;0.00;52218.38;5081829;28;19920;-74
2023/07/14 09:45:36;;;;;;;;;;;;;;;-140.72;0.00;52185.94;5085469;28;19927;-75
2023/07/14 09:48:05;;;;;;;;;;;;;;;-140.72;0.00;52248.81;5085380;28;20238;-73
2023/07/14 09:50:34;;;;;;;;;;;;;;;-140.72;0.00;52187.97;5090907;28;19969;-74
2023/07/14 09:53:04;;;;;;;;;;;;;;;-140.72;0.00;52228.53;5087718;28;20246;-75
2023/07/14 09:55:33;;;;;;;;;;;;;;;-140.72;0.00;52200.13;5094391;28;19967;-79
2023/07/14 09:58:01;;;;;;;;;;;;;;;-140.72;0.00;52192.00;5088694;28;19931;-74
2023/07/14 10:00:28;;;;;;;;;;;;;;;-140.72;0.00;52248.81;5086473;28;20398;-75
2023/07/14 10:03:01;;;;;;;;;;;;;;;-140.72;0.00;52332.03;5081307;28;20370;-77
2023/07/14 10:05:34;;;;;;;;;;;;;;;-140.72;0.00;52269.13;5082418;28;19972;-74
2023/07/14 10:08:02;;;;;;;;;;;;;;;-140.72;0.00;52358.41;5121187;28;19920;-77
2023/07/14 10:13:35;;;;;;;;;;;;;;;-140.72;0.00;52267.09;5088677;28;20297;-74
2023/07/14 10:16:33;;;;;;;;;;;;;;;-140.72;0.00;52258.97;5087869;28;19924;-74
2023/07/14 10:19:03;;;;;;;;;;;;;;;-140.72;0.00;52248.81;5089986;28;19950;-74
2023/07/14 10:21:30;;;;;;;;;;;;;;;-140.72;0.00;52263.03;5094056;28;19924;-75
2023/07/14 10:23:56;;;;;;;;;;;;;;;-140.72;0.00;52293.47;5085807;28;19968;-76
2023/07/14 10:26:23;;;;;;;;;;;;;;;-140.72;0.00;52283.31;5104328;28;19980;-74
2023/07/14 10:28:50;;;;;;;;;;;;;;;-140.72;0.00;52293.47;5101036;28;19973;-72
2023/07/14 10:31:24;;;;;;;;;;;;;;;-140.72;0.00;52301.59;5104602;28;20380;-73
2023/07/14 10:34:08;;;;;;;;;;;;;;;-140.72;0.00;52332.03;5089892;28;20259;-74
2023/07/14 10:36:37;;;;;;;;;;;;;;;-140.72;0.00;52327.97;5098321;28;19978;-73
2023/07/14 10:39:06;;;;;;;;;;;;;;;-140.72;0.00;52396.94;5101062;28;19916;-73
2023/07/14 10:41:34;;;;;;;;;;;;;;;-140.72;0.00;52354.34;5092719;28;19924;-73
2023/07/14 10:44:02;;;;;;;;;;;;;;;-140.72;0.00;52350.28;5084132;28;20080;-76
2023/07/14 10:46:31;;;;;;;;;;;;;;;-140.72;0.00;52350.28;5092783;28;20286;-75
2023/07/14 10:49:00;;;;;;;;;;;;;;;-140.72;0.00;52297.53;5094252;28;19920;-75
2023/07/14 10:51:35;;;;;;;;;;;;;;;-140.72;0.00;52297.53;5075356;28;20025;-75
2023/07/14 10:54:12;;;;;;;;;;;;;;;-140.72;0.00;52362.44;5069599;28;19927;-76
2023/07/14 10:56:40;;;;;;;;;;;;;;;-140.72;0.00;52321.88;5088479;28;19924;-75
2023/07/14 10:59:28;;;;;;;;;;;;;;;-140.72;0.00;52307.66;5086925;28;19920;-76
2023/07/14 11:02:12;;;;;;;;;;;;;;;-140.72;0.00;52327.97;5093363;28;19926;-75
2023/07/14 11:04:40;;;;;;;;;;;;;;;-140.72;0.00;52340.13;5101384;28;20409;-75
2023/07/14 11:07:07;;;;;;;;;;;;;;;-140.72;0.00;52277.22;5107302;28;20028;-75
2023/07/14 11:09:32;;;;;;;;;;;;;;;-140.72;0.00;52295.50;5095832;28;19924;-75
2023/07/14 11:12:18;;;;;;;;;;;;;;;-140.72;0.00;52309.69;5071545;28;19988;-78
2023/07/14 11:14:56;;;;;;;;;;;;;;;-140.72;0.00;52303.59;5093224;28;20384;-77
2023/07/14 11:17:36;;;;;;;;;;;;;;;-140.72;0.00;52303.59;5089424;28;19921;-82
2023/07/14 11:20:09;;;;;;;;;;;;;;;-140.72;0.00;52273.19;5073799;28;20429;-78
2023/07/14 11:22:34;;;;;;;;;;;;;;;-140.72;0.00;52240.72;5096491;28;20032;-73
2023/07/14 11:25:18;;;;;;;;;;;;;;;-140.72;0.00;52228.53;5065234;28;19960;-71
2023/07/14 11:27:47;;;;;;;;;;;;;;;-140.72;0.00;52204.19;5086260;28;19920;-71
2023/07/14 11:30:15;;;;;;;;;;;;;;;-140.72;0.00;52192.00;5084794;28;21369;-71
2023/07/14 11:33:01;;;;;;;;;;;;;;;-140.72;0.00;52198.09;5096277;28;19916;-72
2023/07/14 11:35:30;;;;;;;;;;;;;;;-140.72;0.00;52112.88;5067562;28;20067;-71
2023/07/14 11:38:17;;;;;;;;;;;;;;;-140.72;0.00;52076.34;5089551;28;19927;-70
2023/07/14 11:40:45;;;;;;;;;;;;;;;-140.72;0.00;52074.34;5096016;28;19921;-71
2023/07/14 11:43:24;;;;;;;;;;;;;;;-140.72;0.00;51997.22;5087912;28;19920;-72
2023/07/14 11:45:58;;;;;;;;;;;;;;;-140.72;0.00;52007.38;5069670;28;19928;-71
2023/07/14 11:48:32;;;;;;;;;;;;;;;-140.72;0.00;52009.41;5081693;28;20328;-72
2023/07/14 11:51:03;;;;;;;;;;;;;;;-140.72;0.00;52019.56;5089647;28;20099;-74
2023/07/14 11:59:35;;;;;;;;;;;;;;;-140.72;0.00;51981.00;5083728;28;19939;-81
2023/07/14 12:02:20;;;;;;;;;;;;;;;-140.72;0.00;52001.28;5077379;28;19916;-79
2023/07/14 12:04:56;;;;;;;;;;;;;;;-140.72;0.00;52056.06;5090059;28;19920;-82
2023/07/14 12:07:22;;;;;;;;;;;;;;;-140.72;0.00;52062.16;5075717;28;19966;-80
2023/07/14 12:10:11;;;;;;;;;;;;;;;-140.72;0.00;51983.03;5073735;28;19928;-80
2023/07/14 12:12:37;;;;;;;;;;;;;;;-140.72;0.00;51867.38;5091316;28;19928;-79
2023/07/14 12:15:22;;;;;;;;;;;;;;;-140.72;0.00;51918.09;5064611;28;19916;-78
2023/07/14 12:17:49;;;;;;;;;;;;;;;-140.72;0.00;51952.59;5092808;28;19917;-76
2023/07/14 12:20:16;;;;;;;;;;;;;;;-140.72;0.00;52041.88;5100125;28;19966;-79
2023/07/14 12:22:41;;;;;;;;;;;;;;;-140.72;0.00;51976.94;5098704;28;19938;-81
2023/07/14 12:25:11;;;;;;;;;;;;;;;-140.72;0.00;52056.06;5080886;28;20334;-79
2023/07/14 12:28:02;;;;;;;;;;;;;;;-140.72;0.00;52058.09;5086918;28;19917;-82
2023/07/14 12:30:29;;;;;;;;;;;;;;;-140.72;0.00;52102.75;5076569;28;20293;-82
2023/07/14 12:33:00;;;;;;;;;;;;;;;-140.72;0.00;52125.06;5079659;28;20435;-75
2023/07/14 12:35:27;;;;;;;;;;;;;;;-140.72;0.00;52108.81;5085778;28;19920;-81
2023/07/14 12:37:52;;;;;;;;;;;;;;;-140.72;0.00;52121.00;5073116;28;20015;-79
2023/07/14 12:40:23;;;;;;;;;;;;;;;-140.72;0.00;52114.91;5073979;28;20046;-79
2023/07/14 12:42:53;;;;;;;;;;;;;;;-140.72;0.00;52082.44;5075081;28;19956;-81